sensor_id;sensor_type;location;lat;lon;timestamp;pressure;altitude;pressure_sealevel;temperature;humidity
22104;BME280;11218;48.886;9.426;2022-10-30T00:00:32;98450.44;;;15.76;76.47
22104;BME280;11218;48.886;9.426;2022-10-30T00:03:01;98447.72;;;15.71;76.74
22104;BME280;11218;48.886;9.426;2022-10-30T00:05:29;98444.47;;;15.64;77.22
22104;BME280;11218;48.886;9.426;2022-10-30T00:07:59;98449.13;;;15.58;77.68
22104;BME280;11218;48.886;9.426;2022-10-30T00:10:27;98452.66;;;15.59;76.25
22104;BME280;11218;48.886;9.426;2022-10-30T00:12:55;98440.16;;;15.58;75.87
22104;BME280;11218;48.886;9.426;2022-10-30T00:15:23;98430.34;;;15.62;74.82
22104;BME280;11218;48.886;9.426;2022-10-30T00:17:52;98440.66;;;15.65;74.86
22104;BME280;11218;48.886;9.426;2022-10-30T00:20:20;98447.72;;;15.66;74.73
22104;BME280;11218;48.886;9.426;2022-10-30T00:22:47;98439.03;;;15.69;75.08
22104;BME280;11218;48.886;9.426;2022-10-30T00:25:17;98438.78;;;15.70;75.09
22104;BME280;11218;48.886;9.426;2022-10-30T00:27:44;98435.25;;;15.70;74.96
22104;BME280;11218;48.886;9.426;2022-10-30T00:30:12;98436.06;;;15.70;74.51
22104;BME280;11218;48.886;9.426;2022-10-30T00:32:41;98427.09;;;15.70;74.36
22104;BME280;11218;48.886;9.426;2022-10-30T00:35:09;98430.91;;;15.69;74.28
22104;BME280;11218;48.886;9.426;2022-10-30T00:37:37;98431.16;;;15.67;73.98
22104;BME280;11218;48.886;9.426;2022-10-30T00:40:06;98426.81;;;15.71;73.92
22104;BME280;11218;48.886;9.426;2022-10-30T00:42:36;98430.34;;;15.72;73.86
22104;BME280;11218;48.886;9.426;2022-10-30T00:45:04;98428.44;;;15.72;73.79
22104;BME280;11218;48.886;9.426;2022-10-30T00:47:35;98424.94;;;15.72;73.95
22104;BME280;11218;48.886;9.426;2022-10-30T00:50:06;98427.13;;;15.60;75.08
22104;BME280;11218;48.886;9.426;2022-10-30T00:52:40;98427.91;;;15.45;75.90
22104;BME280;11218;48.886;9.426;2022-10-30T00:55:13;98421.69;;;15.39;76.60
22104;BME280;11218;48.886;9.426;2022-10-30T00:57:45;98436.06;;;15.40;76.83
22104;BME280;11218;48.886;9.426;2022-10-30T01:00:14;98442.84;;;15.27;77.35
22104;BME280;11218;48.886;9.426;2022-10-30T01:02:43;98441.22;;;15.26;77.73
22104;BME280;11218;48.886;9.426;2022-10-30T01:05:14;98436.06;;;15.25;78.30
22104;BME280;11218;48.886;9.426;2022-10-30T01:07:43;98433.59;;;15.23;78.43
22104;BME280;11218;48.886;9.426;2022-10-30T01:10:12;98434.41;;;15.24;78.44
22104;BME280;11218;48.886;9.426;2022-10-30T01:12:41;98431.16;;;15.22;78.42
22104;BME280;11218;48.886;9.426;2022-10-30T01:15:12;98441.47;;;15.25;78.98
22104;BME280;11218;48.886;9.426;2022-10-30T01:17:56;98435.50;;;15.23;78.72
22104;BME280;11218;48.886;9.426;2022-10-30T01:20:42;98434.69;;;15.22;79.23
22104;BME280;11218;48.886;9.426;2022-10-30T01:23:25;98437.41;;;15.22;78.85
22104;BME280;11218;48.886;9.426;2022-10-30T01:26:02;98433.34;;;15.20;78.01
22104;BME280;11218;48.886;9.426;2022-10-30T01:28:45;98431.13;;;15.01;78.92
22104;BME280;11218;48.886;9.426;2022-10-30T01:31:26;98420.53;;;14.90;79.48
22104;BME280;11218;48.886;9.426;2022-10-30T01:34:04;98431.66;;;14.88;80.07
22104;BME280;11218;48.886;9.426;2022-10-30T01:36:38;98417.81;;;14.90;80.29
22104;BME280;11218;48.886;9.426;2022-10-30T01:39:12;98418.63;;;14.90;80.28
22104;BME280;11218;48.886;9.426;2022-10-30T01:41:43;98422.97;;;14.86;79.96
22104;BME280;11218;48.886;9.426;2022-10-30T01:44:15;98418.38;;;14.87;80.07
22104;BME280;11218;48.886;9.426;2022-10-30T01:47:00;98411.59;;;14.89;80.25
22104;BME280;11218;48.886;9.426;2022-10-30T01:49:46;98408.63;;;14.91;80.08
22104;BME280;11218;48.886;9.426;2022-10-30T01:52:21;98408.34;;;14.92;80.04
22104;BME280;11218;48.886;9.426;2022-10-30T01:55:01;98407.00;;;14.95;80.10
22104;BME280;11218;48.886;9.426;2022-10-30T01:57:36;98403.75;;;14.93;79.98
22104;BME280;11218;48.886;9.426;2022-10-30T02:00:08;98398.31;;;14.93;79.54
22104;BME280;11218;48.886;9.426;2022-10-30T02:02:38;98407.53;;;14.92;79.30
22104;BME280;11218;48.886;9.426;2022-10-30T02:05:08;98394.50;;;14.89;79.09
22104;BME280;11218;48.886;9.426;2022-10-30T02:07:36;98390.19;;;14.88;78.88
22104;BME280;11218;48.886;9.426;2022-10-30T02:10:05;98386.13;;;14.85;78.91
22104;BME280;11218;48.886;9.426;2022-10-30T02:12:33;98385.03;;;14.86;78.75
22104;BME280;11218;48.886;9.426;2022-10-30T02:15:01;98391.81;;;14.84;78.54
22104;BME280;11218;48.886;9.426;2022-10-30T02:17:29;98386.66;;;14.87;78.02
22104;BME280;11218;48.886;9.426;2022-10-30T02:19:59;98386.38;;;14.89;77.84
22104;BME280;11218;48.886;9.426;2022-10-30T02:22:28;98375.28;;;14.90;77.78
22104;BME280;11218;48.886;9.426;2022-10-30T02:24:56;98373.09;;;14.92;77.49
22104;BME280;11218;48.886;9.426;2022-10-30T02:27:24;98370.66;;;14.96;77.59
22104;BME280;11218;48.886;9.426;2022-10-30T02:29:52;98378.81;;;15.01;77.24
22104;BME280;11218;48.886;9.426;2022-10-30T02:32:20;98379.34;;;15.03;76.71
22104;BME280;11218;48.886;9.426;2022-10-30T02:34:48;98372.56;;;15.05;76.65
22104;BME280;11218;48.886;9.426;2022-10-30T02:37:16;98377.19;;;15.05;77.26
22104;BME280;11218;48.886;9.426;2022-10-30T02:39:45;98374.75;;;14.98;77.91
22104;BME280;11218;48.886;9.426;2022-10-30T02:42:13;98369.03;;;14.95;77.88
22104;BME280;11218;48.886;9.426;2022-10-30T02:44:41;98375.56;;;14.99;77.90
22104;BME280;11218;48.886;9.426;2022-10-30T02:47:09;98370.94;;;15.04;77.50
22104;BME280;11218;48.886;9.426;2022-10-30T02:49:37;98381.53;;;15.06;77.76
22104;BME280;11218;48.886;9.426;2022-10-30T02:52:06;98380.44;;;15.07;78.17
22104;BME280;11218;48.886;9.426;2022-10-30T02:54:34;98376.91;;;15.01;78.25
22104;BME280;11218;48.886;9.426;2022-10-30T02:57:04;98375.00;;;15.02;78.44
22104;BME280;11218;48.886;9.426;2022-10-30T02:59:32;98369.59;;;15.07;77.40
22104;BME280;11218;48.886;9.426;2022-10-30T03:02:00;98369.06;;;15.15;75.82
22104;BME280;11218;48.886;9.426;2022-10-30T03:04:28;98377.75;;;15.22;75.50
22104;BME280;11218;48.886;9.426;2022-10-30T03:06:56;98376.09;;;15.21;75.52
22104;BME280;11218;48.886;9.426;2022-10-30T03:09:24;98380.72;;;15.21;75.82
22104;BME280;11218;48.886;9.426;2022-10-30T03:11:51;98367.69;;;15.23;75.62
22104;BME280;11218;48.886;9.426;2022-10-30T03:14:21;98374.47;;;15.25;75.57
22104;BME280;11218;48.886;9.426;2022-10-30T03:16:49;98375.56;;;15.29;75.63
22104;BME280;11218;48.886;9.426;2022-10-30T03:19:18;98371.50;;;15.17;76.38
22104;BME280;11218;48.886;9.426;2022-10-30T03:21:46;98374.22;;;15.11;76.48
22104;BME280;11218;48.886;9.426;2022-10-30T03:24:14;98376.91;;;15.11;76.05
22104;BME280;11218;48.886;9.426;2022-10-30T03:26:42;98375.56;;;15.09;75.94
22104;BME280;11218;48.886;9.426;2022-10-30T03:29:10;98370.94;;;15.09;76.11
22104;BME280;11218;48.886;9.426;2022-10-30T03:31:39;98380.16;;;15.08;76.30
22104;BME280;11218;48.886;9.426;2022-10-30T03:34:07;98378.00;;;15.10;76.64
22104;BME280;11218;48.886;9.426;2022-10-30T03:36:35;98373.38;;;15.06;76.83
22104;BME280;11218;48.886;9.426;2022-10-30T03:39:03;98383.97;;;15.02;77.13
22104;BME280;11218;48.886;9.426;2022-10-30T03:41:31;98392.91;;;14.98;77.61
22104;BME280;11218;48.886;9.426;2022-10-30T03:43:59;98391.00;;;14.98;77.22
22104;BME280;11218;48.886;9.426;2022-10-30T03:46:27;98383.13;;;14.97;76.67
22104;BME280;11218;48.886;9.426;2022-10-30T03:48:58;98384.78;;;14.98;76.68
22104;BME280;11218;48.886;9.426;2022-10-30T03:51:26;98394.25;;;14.90;77.16
22104;BME280;11218;48.886;9.426;2022-10-30T03:53:54;98396.41;;;14.88;77.51
22104;BME280;11218;48.886;9.426;2022-10-30T03:56:22;98393.16;;;14.81;78.08
22104;BME280;11218;48.886;9.426;2022-10-30T03:58:50;98405.09;;;14.80;78.19
22104;BME280;11218;48.886;9.426;2022-10-30T04:01:18;98415.63;;;14.66;78.30
22104;BME280;11218;48.886;9.426;2022-10-30T04:03:46;98412.31;;;14.49;78.93
22104;BME280;11218;48.886;9.426;2022-10-30T04:06:15;98414.47;;;14.47;79.61
22104;BME280;11218;48.886;9.426;2022-10-30T04:08:43;98408.25;;;14.46;79.50
22104;BME280;11218;48.886;9.426;2022-10-30T04:11:11;98410.69;;;14.48;79.85
22104;BME280;11218;48.886;9.426;2022-10-30T04:13:39;98406.34;;;14.47;80.12
22104;BME280;11218;48.886;9.426;2022-10-30T04:16:07;98406.63;;;14.45;79.99
22104;BME280;11218;48.886;9.426;2022-10-30T04:18:35;98411.75;;;14.42;79.78
22104;BME280;11218;48.886;9.426;2022-10-30T04:21:03;98400.59;;;14.38;80.05
22104;BME280;11218;48.886;9.426;2022-10-30T04:23:33;98398.72;;;14.39;80.19
22104;BME280;11218;48.886;9.426;2022-10-30T04:26:00;98406.28;;;14.37;80.25
22104;BME280;11218;48.886;9.426;2022-10-30T04:28:29;98403.84;;;14.35;79.98
22104;BME280;11218;48.886;9.426;2022-10-30T04:30:57;98410.06;;;14.36;80.24
22104;BME280;11218;48.886;9.426;2022-10-30T04:33:25;98417.91;;;14.32;79.96
22104;BME280;11218;48.886;9.426;2022-10-30T04:35:54;98408.13;;;14.26;80.49
22104;BME280;11218;48.886;9.426;2022-10-30T04:38:22;98408.38;;;14.20;80.57
22104;BME280;11218;48.886;9.426;2022-10-30T04:40:51;98404.00;;;14.13;80.85
22104;BME280;11218;48.886;9.426;2022-10-30T04:43:19;98397.25;;;14.11;80.85
22104;BME280;11218;48.886;9.426;2022-10-30T04:45:47;98398.06;;;14.06;80.76
22104;BME280;11218;48.886;9.426;2022-10-30T04:48:17;98390.19;;;14.05;80.91
22104;BME280;11218;48.886;9.426;2022-10-30T04:50:45;98399.13;;;14.05;80.48
22104;BME280;11218;48.886;9.426;2022-10-30T04:53:15;98393.72;;;14.05;80.79
22104;BME280;11218;48.886;9.426;2022-10-30T04:55:43;98398.59;;;14.08;80.33
22104;BME280;11218;48.886;9.426;2022-10-30T04:58:13;98399.38;;;14.04;81.04
22104;BME280;11218;48.886;9.426;2022-10-30T05:00:41;98409.66;;;14.02;80.60
22104;BME280;11218;48.886;9.426;2022-10-30T05:03:16;98398.56;;;13.98;80.74
22104;BME280;11218;48.886;9.426;2022-10-30T05:05:45;98399.59;;;13.92;81.65
22104;BME280;11218;48.886;9.426;2022-10-30T05:08:13;98400.13;;;13.89;81.91
22104;BME280;11218;48.886;9.426;2022-10-30T05:10:47;98395.78;;;13.88;81.74
22104;BME280;11218;48.886;9.426;2022-10-30T05:13:29;98392.25;;;13.88;81.33
22104;BME280;11218;48.886;9.426;2022-10-30T05:15:56;98392.00;;;13.89;81.40
22104;BME280;11218;48.886;9.426;2022-10-30T05:18:24;98387.97;;;13.92;81.66
22104;BME280;11218;48.886;9.426;2022-10-30T05:20:53;98385.81;;;13.94;81.48
22104;BME280;11218;48.886;9.426;2022-10-30T05:23:21;98389.31;;;13.94;81.39
22104;BME280;11218;48.886;9.426;2022-10-30T05:25:49;98393.66;;;13.95;81.80
22104;BME280;11218;48.886;9.426;2022-10-30T05:28:17;98392.81;;;13.90;81.90
22104;BME280;11218;48.886;9.426;2022-10-30T05:30:46;98393.59;;;13.85;81.40
22104;BME280;11218;48.886;9.426;2022-10-30T05:33:14;98376.53;;;13.79;81.85
22104;BME280;11218;48.886;9.426;2022-10-30T05:35:43;98382.75;;;13.80;81.43
22104;BME280;11218;48.886;9.426;2022-10-30T05:38:12;98385.47;;;13.80;80.66
22104;BME280;11218;48.886;9.426;2022-10-30T05:40:40;98391.13;;;13.78;80.45
22104;BME280;11218;48.886;9.426;2022-10-30T05:43:08;98388.69;;;13.77;81.06
22104;BME280;11218;48.886;9.426;2022-10-30T05:45:36;98383.00;;;13.78;80.26
22104;BME280;11218;48.886;9.426;2022-10-30T05:48:06;98380.84;;;13.80;80.52
22104;BME280;11218;48.886;9.426;2022-10-30T05:50:34;98387.34;;;13.79;80.18
22104;BME280;11218;48.886;9.426;2022-10-30T05:53:03;98377.59;;;13.78;80.22
22104;BME280;11218;48.886;9.426;2022-10-30T05:55:32;98375.97;;;13.77;80.68
22104;BME280;11218;48.886;9.426;2022-10-30T05:58:01;98381.19;;;13.89;79.37
22104;BME280;11218;48.886;9.426;2022-10-30T06:00:31;98383.75;;;13.69;80.14
22104;BME280;11218;48.886;9.426;2022-10-30T06:03:00;98385.09;;;13.66;80.63
22104;BME280;11218;48.886;9.426;2022-10-30T06:05:32;98378.34;;;13.69;80.68
22104;BME280;11218;48.886;9.426;2022-10-30T06:08:01;98387.59;;;13.78;80.37
22104;BME280;11218;48.886;9.426;2022-10-30T06:10:29;98389.78;;;13.81;79.96
22104;BME280;11218;48.886;9.426;2022-10-30T06:12:58;98391.38;;;13.77;80.59
22104;BME280;11218;48.886;9.426;2022-10-30T06:15:28;98393.53;;;13.75;80.65
22104;BME280;11218;48.886;9.426;2022-10-30T06:17:57;98388.38;;;13.73;80.81
22104;BME280;11218;48.886;9.426;2022-10-30T06:20:28;98392.16;;;13.72;81.34
22104;BME280;11218;48.886;9.426;2022-10-30T06:22:59;98396.72;;;13.67;81.31
22104;BME280;11218;48.886;9.426;2022-10-30T06:25:29;98397.81;;;13.66;81.06
22104;BME280;11218;48.886;9.426;2022-10-30T06:28:05;98397.78;;;13.61;81.59
22104;BME280;11218;48.886;9.426;2022-10-30T06:30:32;98385.03;;;13.56;81.79
22104;BME280;11218;48.886;9.426;2022-10-30T06:33:02;98397.47;;;13.57;82.10
22104;BME280;11218;48.886;9.426;2022-10-30T06:35:30;98396.66;;;13.57;82.21
22104;BME280;11218;48.886;9.426;2022-10-30T06:38:00;98396.41;;;13.58;82.48
22104;BME280;11218;48.886;9.426;2022-10-30T06:40:28;98398.84;;;13.60;82.39
22104;BME280;11218;48.886;9.426;2022-10-30T06:42:56;98401.56;;;13.60;82.29
22104;BME280;11218;48.886;9.426;2022-10-30T06:45:25;98399.97;;;13.64;81.69
22104;BME280;11218;48.886;9.426;2022-10-30T06:47:53;98399.97;;;13.64;82.00
22104;BME280;11218;48.886;9.426;2022-10-30T06:50:24;98407.25;;;13.63;81.67
22104;BME280;11218;48.886;9.426;2022-10-30T06:52:52;98414.03;;;13.66;82.06
22104;BME280;11218;48.886;9.426;2022-10-30T06:55:25;98408.06;;;13.64;81.38
22104;BME280;11218;48.886;9.426;2022-10-30T06:57:54;98415.63;;;13.62;81.61
22104;BME280;11218;48.886;9.426;2022-10-30T07:00:23;98407.56;;;13.67;82.01
22104;BME280;11218;48.886;9.426;2022-10-30T07:02:55;98403.50;;;13.69;82.01
22104;BME280;11218;48.886;9.426;2022-10-30T07:05:24;98409.81;;;13.80;81.29
22104;BME280;11218;48.886;9.426;2022-10-30T07:07:55;98397.16;;;13.91;81.16
22104;BME280;11218;48.886;9.426;2022-10-30T07:10:25;98393.97;;;14.04;80.43
22104;BME280;11218;48.886;9.426;2022-10-30T07:12:54;98389.13;;;14.11;80.77
22104;BME280;11218;48.886;9.426;2022-10-30T07:15:23;98397.28;;;14.21;80.04
22104;BME280;11218;48.886;9.426;2022-10-30T07:17:53;98398.88;;;14.12;80.30
22104;BME280;11218;48.886;9.426;2022-10-30T07:20:22;98398.88;;;14.07;80.26
22104;BME280;11218;48.886;9.426;2022-10-30T07:22:50;98411.06;;;14.09;80.65
22104;BME280;11218;48.886;9.426;2022-10-30T07:25:19;98408.88;;;14.11;80.63
22104;BME280;11218;48.886;9.426;2022-10-30T07:27:50;98402.41;;;14.18;80.44
22104;BME280;11218;48.886;9.426;2022-10-30T07:30:19;98408.41;;;14.25;80.74
22104;BME280;11218;48.886;9.426;2022-10-30T07:32:56;98406.53;;;14.30;80.46
22104;BME280;11218;48.886;9.426;2022-10-30T07:35:24;98414.97;;;14.39;80.61
22104;BME280;11218;48.886;9.426;2022-10-30T07:37:52;98412.31;;;14.44;80.13
22104;BME280;11218;48.886;9.426;2022-10-30T07:40:21;98413.13;;;14.50;79.98
22104;BME280;11218;48.886;9.426;2022-10-30T07:42:55;98413.44;;;14.58;80.06
22104;BME280;11218;48.886;9.426;2022-10-30T07:45:24;98416.44;;;14.67;79.84
22104;BME280;11218;48.886;9.426;2022-10-30T07:47:53;98415.09;;;14.74;79.77
22104;BME280;11218;48.886;9.426;2022-10-30T07:50:22;98423.00;;;14.81;79.71
22104;BME280;11218;48.886;9.426;2022-10-30T07:52:50;98413.22;;;14.90;79.38
22104;BME280;11218;48.886;9.426;2022-10-30T07:55:18;98411.59;;;14.99;79.28
22104;BME280;11218;48.886;9.426;2022-10-30T07:57:49;98413.25;;;15.05;79.35
22104;BME280;11218;48.886;9.426;2022-10-30T08:00:18;98415.69;;;15.12;79.30
22104;BME280;11218;48.886;9.426;2022-10-30T08:02:48;98408.38;;;15.23;78.97
22104;BME280;11218;48.886;9.426;2022-10-30T08:05:17;98416.53;;;15.33;78.88
22104;BME280;11218;48.886;9.426;2022-10-30T08:07:45;98410.56;;;15.41;78.82
22104;BME280;11218;48.886;9.426;2022-10-30T08:10:14;98419.50;;;15.52;78.38
22104;BME280;11218;48.886;9.426;2022-10-30T08:12:42;98420.03;;;15.69;77.73
22104;BME280;11218;48.886;9.426;2022-10-30T08:15:11;98412.16;;;15.83;77.26
22104;BME280;11218;48.886;9.426;2022-10-30T08:17:47;98414.00;;;16.02;76.76
22104;BME280;11218;48.886;9.426;2022-10-30T08:20:16;98418.28;;;16.29;74.31
22104;BME280;11218;48.886;9.426;2022-10-30T08:22:46;98419.25;;;16.48;74.44
22104;BME280;11218;48.886;9.426;2022-10-30T08:25:20;98421.91;;;16.68;73.27
22104;BME280;11218;48.886;9.426;2022-10-30T08:27:52;98416.09;;;16.90;72.50
22104;BME280;11218;48.886;9.426;2022-10-30T08:30:22;98418.13;;;17.08;71.29
22104;BME280;11218;48.886;9.426;2022-10-30T08:32:55;98411.47;;;17.25;71.09
22104;BME280;11218;48.886;9.426;2022-10-30T08:35:24;98412.75;;;17.37;70.95
22104;BME280;11218;48.886;9.426;2022-10-30T08:37:58;98405.53;;;17.52;nan
22104;BME280;11218;48.886;9.426;2022-10-30T08:40:28;98413.56;;;17.72;67.81
22104;BME280;11218;48.886;9.426;2022-10-30T08:43:02;98407.66;;;17.89;68.18
22104;BME280;11218;48.886;9.426;2022-10-30T08:45:29;98406.72;;;17.98;69.38
22104;BME280;11218;48.886;9.426;2022-10-30T08:48:04;98406.84;;;18.12;68.50
22104;BME280;11218;48.886;9.426;2022-10-30T08:50:33;98402.09;;;18.23;68.65
22104;BME280;11218;48.886;9.426;2022-10-30T08:53:02;98409.06;;;18.34;68.53
22104;BME280;11218;48.886;9.426;2022-10-30T08:55:30;98407.25;;;18.48;67.13
22104;BME280;11218;48.886;9.426;2022-10-30T08:57:58;98405.19;;;18.59;67.10
22104;BME280;11218;48.886;9.426;2022-10-30T09:00:29;98410.75;;;18.73;65.81
22104;BME280;11218;48.886;9.426;2022-10-30T09:02:58;98403.47;;;18.87;65.45
22104;BME280;11218;48.886;9.426;2022-10-30T09:05:28;98405.53;;;18.95;65.27
22104;BME280;11218;48.886;9.426;2022-10-30T09:08:00;98413.28;;;19.07;64.92
22104;BME280;11218;48.886;9.426;2022-10-30T09:10:29;98405.47;;;19.19;64.50
22104;BME280;11218;48.886;9.426;2022-10-30T09:12:59;98408.84;;;19.29;64.14
22104;BME280;11218;48.886;9.426;2022-10-30T09:15:28;98410.28;;;19.41;64.11
22104;BME280;11218;48.886;9.426;2022-10-30T09:17:57;98400.03;;;19.51;63.88
22104;BME280;11218;48.886;9.426;2022-10-30T09:20:37;98410.19;;;19.64;63.22
22104;BME280;11218;48.886;9.426;2022-10-30T09:23:05;98409.78;;;19.71;62.70
22104;BME280;11218;48.886;9.426;2022-10-30T09:25:33;98406.28;;;19.84;62.50
22104;BME280;11218;48.886;9.426;2022-10-30T09:28:03;98404.47;;;19.93;62.17
22104;BME280;11218;48.886;9.426;2022-10-30T09:30:35;98409.44;;;20.05;61.46
22104;BME280;11218;48.886;9.426;2022-10-30T09:33:07;98402.94;;;20.15;60.77
22104;BME280;11218;48.886;9.426;2022-10-30T09:35:35;98409.03;;;20.25;60.36
22104;BME280;11218;48.886;9.426;2022-10-30T09:38:06;98413.19;;;20.37;59.54
22104;BME280;11218;48.886;9.426;2022-10-30T09:40:52;98412.41;;;20.50;59.70
22104;BME280;11218;48.886;9.426;2022-10-30T09:43:32;98420.09;;;20.61;58.80
22104;BME280;11218;48.886;9.426;2022-10-30T09:46:19;98421.81;;;20.71;58.26
22104;BME280;11218;48.886;9.426;2022-10-30T09:52:16;98423.75;;;20.93;57.23
22104;BME280;11218;48.886;9.426;2022-10-30T09:55:05;98423.34;;;20.99;56.06
22104;BME280;11218;48.886;9.426;2022-10-30T09:57:43;98428.59;;;21.10;56.01
22104;BME280;11218;48.886;9.426;2022-10-30T10:00:17;98427.84;;;21.18;55.99
22104;BME280;11218;48.886;9.426;2022-10-30T10:02:55;98425.53;;;21.25;55.74
22104;BME280;11218;48.886;9.426;2022-10-30T10:05:42;98419.31;;;21.33;55.73
22104;BME280;11218;48.886;9.426;2022-10-30T10:08:14;98416.94;;;21.40;55.26
22104;BME280;11218;48.886;9.426;2022-10-30T10:10:47;98422.19;;;21.50;55.38
22104;BME280;11218;48.886;9.426;2022-10-30T10:13:26;98419.78;;;21.57;54.46
22104;BME280;11218;48.886;9.426;2022-10-30T10:16:04;98420.16;;;21.64;53.01
22104;BME280;11218;48.886;9.426;2022-10-30T10:18:41;98422.81;;;21.78;53.77
22104;BME280;11218;48.886;9.426;2022-10-30T10:21:17;98417.09;;;21.88;54.21
22104;BME280;11218;48.886;9.426;2022-10-30T10:23:56;98418.44;;;22.00;54.22
22104;BME280;11218;48.886;9.426;2022-10-30T10:26:29;98423.81;;;22.05;54.07
22104;BME280;11218;48.886;9.426;2022-10-30T10:32:25;98418.69;;;22.12;53.58
22104;BME280;11218;48.886;9.426;2022-10-30T10:35:32;98407.91;;;22.15;53.67
22104;BME280;11218;48.886;9.426;2022-10-30T10:38:12;98406.00;;;22.24;54.36
22104;BME280;11218;48.886;9.426;2022-10-30T10:41:01;98408.56;;;22.29;54.90
22104;BME280;11218;48.886;9.426;2022-10-30T10:43:42;98417.47;;;22.35;54.81
22104;BME280;11218;48.886;9.426;2022-10-30T10:46:31;98412.31;;;22.42;55.92
22104;BME280;11218;48.886;9.426;2022-10-30T10:49:16;98408.00;;;22.50;55.51
22104;BME280;11218;48.886;9.426;2022-10-30T10:51:57;98407.81;;;22.46;54.59
22104;BME280;11218;48.886;9.426;2022-10-30T10:54:47;98407.97;;;22.41;53.81
22104;BME280;11218;48.886;9.426;2022-10-30T10:57:24;98405.72;;;22.43;54.66
22104;BME280;11218;48.886;9.426;2022-10-30T11:00:12;98398.31;;;22.52;54.94
22104;BME280;11218;48.886;9.426;2022-10-30T11:02:46;98406.56;;;22.61;55.04
22104;BME280;11218;48.886;9.426;2022-10-30T11:05:33;98396.09;;;22.72;55.57
22104;BME280;11218;48.886;9.426;2022-10-30T11:08:10;98392.06;;;22.78;55.21
22104;BME280;11218;48.886;9.426;2022-10-30T11:10:42;98390.34;;;22.82;54.93
22104;BME280;11218;48.886;9.426;2022-10-30T11:13:12;98388.22;;;22.79;54.12
22104;BME280;11218;48.886;9.426;2022-10-30T11:15:49;98382.75;;;22.79;53.94
22104;BME280;11218;48.886;9.426;2022-10-30T11:18:20;98384.69;;;22.87;54.18
22104;BME280;11218;48.886;9.426;2022-10-30T11:20:58;98377.91;;;23.02;54.71
22104;BME280;11218;48.886;9.426;2022-10-30T11:23:40;98374.66;;;23.17;54.28
22104;BME280;11218;48.886;9.426;2022-10-30T11:26:40;98372.88;;;23.30;53.52
22104;BME280;11218;48.886;9.426;2022-10-30T11:29:12;98375.13;;;23.45;54.46
22104;BME280;11218;48.886;9.426;2022-10-30T11:31:43;98372.69;;;23.61;54.36
22104;BME280;11218;48.886;9.426;2022-10-30T11:34:27;98378.50;;;23.68;54.37
22104;BME280;11218;48.886;9.426;2022-10-30T11:36:58;98371.53;;;23.70;53.26
22104;BME280;11218;48.886;9.426;2022-10-30T11:39:27;98374.44;;;23.74;53.75
22104;BME280;11218;48.886;9.426;2022-10-30T11:42:12;98384.63;;;23.73;53.33
22104;BME280;11218;48.886;9.426;2022-10-30T11:44:42;98374.56;;;23.77;53.05
22104;BME280;11218;48.886;9.426;2022-10-30T11:47:16;98373.63;;;23.73;52.54
22104;BME280;11218;48.886;9.426;2022-10-30T11:49:50;98376.88;;;23.75;52.95
22104;BME280;11218;48.886;9.426;2022-10-30T11:52:24;98365.88;;;23.75;52.08
22104;BME280;11218;48.886;9.426;2022-10-30T11:54:55;98360.16;;;23.80;52.01
22104;BME280;11218;48.886;9.426;2022-10-30T11:57:36;98365.63;;;23.89;52.64
22104;BME280;11218;48.886;9.426;2022-10-30T12:00:14;98359.44;;;24.01;52.98
22104;BME280;11218;48.886;9.426;2022-10-30T12:02:46;98364.91;;;24.09;51.94
22104;BME280;11218;48.886;9.426;2022-10-30T12:05:30;98360.03;;;24.15;51.00
22104;BME280;11218;48.886;9.426;2022-10-30T12:08:16;98356.91;;;24.25;50.88
22104;BME280;11218;48.886;9.426;2022-10-30T12:10:46;98359.03;;;24.28;50.81
22104;BME280;11218;48.886;9.426;2022-10-30T12:13:31;98350.59;;;24.24;51.04
22104;BME280;11218;48.886;9.426;2022-10-30T12:16:09;98352.44;;;24.12;50.90
22104;BME280;11218;48.886;9.426;2022-10-30T12:18:51;98353.75;;;24.06;51.38
22104;BME280;11218;48.886;9.426;2022-10-30T12:21:22;98350.56;;;23.95;51.53
22104;BME280;11218;48.886;9.426;2022-10-30T12:23:55;98343.00;;;23.83;51.74
22104;BME280;11218;48.886;9.426;2022-10-30T12:26:24;98354.06;;;23.75;52.19
22104;BME280;11218;48.886;9.426;2022-10-30T12:28:57;98356.03;;;23.66;52.25
22104;BME280;11218;48.886;9.426;2022-10-30T12:31:33;98352.81;;;23.55;52.99
22104;BME280;11218;48.886;9.426;2022-10-30T12:34:11;98344.38;;;23.51;54.04
22104;BME280;11218;48.886;9.426;2022-10-30T12:36:48;98341.97;;;23.50;54.50
22104;BME280;11218;48.886;9.426;2022-10-30T12:39:22;98344.56;;;23.46;54.48
22104;BME280;11218;48.886;9.426;2022-10-30T12:41:57;98339.72;;;23.43;54.85
22104;BME280;11218;48.886;9.426;2022-10-30T12:44:29;98334.53;;;23.42;55.23
22104;BME280;11218;48.886;9.426;2022-10-30T12:47:02;98339.56;;;23.40;55.24
22104;BME280;11218;48.886;9.426;2022-10-30T12:49:39;98341.97;;;23.41;55.85
22104;BME280;11218;48.886;9.426;2022-10-30T12:52:13;98342.63;;;23.47;56.59
22104;BME280;11218;48.886;9.426;2022-10-30T12:54:47;98336.47;;;23.50;56.69
22104;BME280;11218;48.886;9.426;2022-10-30T12:57:19;98345.72;;;23.54;57.11
22104;BME280;11218;48.886;9.426;2022-10-30T12:59:56;98340.84;;;23.51;57.02
22104;BME280;11218;48.886;9.426;2022-10-30T13:02:35;98334.19;;;23.52;56.28
22104;BME280;11218;48.886;9.426;2022-10-30T13:05:20;98325.66;;;23.53;56.72
22104;BME280;11218;48.886;9.426;2022-10-30T13:07:59;98330.31;;;23.53;56.05
22104;BME280;11218;48.886;9.426;2022-10-30T13:10:31;98334.19;;;23.52;55.23
22104;BME280;11218;48.886;9.426;2022-10-30T13:13:04;98332.59;;;23.51;55.66
22104;BME280;11218;48.886;9.426;2022-10-30T13:15:39;98328.69;;;23.52;56.09
22104;BME280;11218;48.886;9.426;2022-10-30T13:18:14;98321.78;;;23.54;57.54
22104;BME280;11218;48.886;9.426;2022-10-30T13:20:53;98322.91;;;23.53;56.55
22104;BME280;11218;48.886;9.426;2022-10-30T13:23:26;98329.50;;;23.52;57.25
22104;BME280;11218;48.886;9.426;2022-10-30T13:26:05;98328.22;;;23.50;56.84
22104;BME280;11218;48.886;9.426;2022-10-30T13:28:39;98325.81;;;23.48;56.27
22104;BME280;11218;48.886;9.426;2022-10-30T13:31:16;98326.44;;;23.45;55.29